createdAt,value
2023-01-20T00:01:07.087Z,32.13
2023-01-20T00:03:34.086Z,30.10
2023-01-20T00:06:01.080Z,31.38
2023-01-20T00:08:28.018Z,30.75
2023-01-20T00:10:54.976Z,29.60
2023-01-20T00:13:22.121Z,33.85
2023-01-20T00:15:49.048Z,31.10
2023-01-20T00:18:16.494Z,29.02
2023-01-20T00:20:43.724Z,26.20
2023-01-20T00:23:10.700Z,25.83
2023-01-20T00:25:37.752Z,26.95
2023-01-20T00:28:05.235Z,29.73
2023-01-20T00:30:32.278Z,27.65
2023-01-20T00:32:59.585Z,25.98
2023-01-20T00:35:26.470Z,30.15
2023-01-20T00:37:53.390Z,28.58
2023-01-20T00:40:20.477Z,30.00
2023-01-20T00:42:47.388Z,29.13
2023-01-20T00:45:14.599Z,27.52
2023-01-20T00:47:41.823Z,32.95
2023-01-20T00:50:09.179Z,33.20
2023-01-20T00:52:36.068Z,29.33
2023-01-20T00:55:03.403Z,29.73
2023-01-20T00:57:30.257Z,33.38
2023-01-20T00:59:57.182Z,27.17
2023-01-20T01:02:24.102Z,28.23
2023-01-20T01:04:51.314Z,36.85
2023-01-20T01:07:18.852Z,28.20
2023-01-20T01:09:45.853Z,31.92
2023-01-20T01:12:12.819Z,28.10
2023-01-20T01:14:39.754Z,29.48
2023-01-20T01:17:06.714Z,29.88
2023-01-20T01:19:33.623Z,31.92
2023-01-20T01:22:00.531Z,28.75
2023-01-20T01:24:27.449Z,26.10
2023-01-20T01:26:54.597Z,26.55
2023-01-20T01:29:21.894Z,32.13
2023-01-20T01:31:48.863Z,28.73
2023-01-20T01:34:15.787Z,28.63
2023-01-20T01:36:42.865Z,31.83
2023-01-20T01:39:09.748Z,29.60
2023-01-20T01:41:36.761Z,31.73
2023-01-20T01:44:11.236Z,33.60
2023-01-20T01:46:39.000Z,30.02
2023-01-20T01:49:09.123Z,38.00
2023-01-20T01:51:41.813Z,36.40
2023-01-20T01:54:21.932Z,35.75
2023-01-20T01:56:50.291Z,38.10
2023-01-20T01:59:18.634Z,36.22
2023-01-20T02:01:50.537Z,38.70
2023-01-20T02:04:21.155Z,38.75
2023-01-20T02:07:11.410Z,33.97
2023-01-20T02:09:38.747Z,33.00
2023-01-20T02:12:12.359Z,34.08
2023-01-20T02:14:47.287Z,36.73
2023-01-20T02:17:35.617Z,34.17
2023-01-20T02:20:35.473Z,32.60
2023-01-20T02:23:15.424Z,29.63
2023-01-20T02:25:45.041Z,36.65
2023-01-20T02:28:40.731Z,31.77
2023-01-20T02:31:15.029Z,29.73
2023-01-20T02:33:58.493Z,29.42
2023-01-20T02:36:38.985Z,35.80
2023-01-20T02:39:30.506Z,32.97
2023-01-20T02:42:25.849Z,37.63
2023-01-20T02:44:59.640Z,34.72
2023-01-20T02:47:26.620Z,39.10
2023-01-20T02:49:59.370Z,33.83
2023-01-20T02:52:34.950Z,36.67
2023-01-20T02:55:07.408Z,34.38
2023-01-20T02:57:42.541Z,33.35
2023-01-20T03:00:24.950Z,38.80
2023-01-20T03:02:55.540Z,33.22
2023-01-20T03:05:27.605Z,36.53
2023-01-20T03:07:55.869Z,31.77
2023-01-20T03:10:26.738Z,33.70
2023-01-20T03:13:26.302Z,31.20
2023-01-20T03:16:00.644Z,32.65
2023-01-20T03:18:30.095Z,34.20
2023-01-20T03:20:59.588Z,33.85
2023-01-20T03:23:29.425Z,31.05
2023-01-20T03:25:57.981Z,30.92
2023-01-20T03:28:25.509Z,34.15
2023-01-20T03:30:56.904Z,34.05
2023-01-20T03:33:24.627Z,39.25
2023-01-20T03:35:52.517Z,38.80
2023-01-20T03:38:19.462Z,31.70
2023-01-20T03:40:53.984Z,33.88
2023-01-20T03:45:59.425Z,27.35
2023-01-20T03:48:38.551Z,30.35
2023-01-20T03:51:20.757Z,32.88
2023-01-20T03:53:54.342Z,33.17
2023-01-20T03:56:28.587Z,33.53
2023-01-20T03:58:59.792Z,37.78
2023-01-20T04:01:34.356Z,37.97
2023-01-20T04:06:30.088Z,34.30
2023-01-20T04:09:05.324Z,31.80
2023-01-20T04:11:34.081Z,36.15
2023-01-20T04:14:01.375Z,38.75
2023-01-20T04:16:28.417Z,37.58
2023-01-20T04:18:55.563Z,35.67
2023-01-20T04:21:49.122Z,38.40
2023-01-20T04:24:25.003Z,36.40
2023-01-20T04:26:51.975Z,39.00
2023-01-20T04:29:18.975Z,36.47
2023-01-20T04:31:45.920Z,33.58
2023-01-20T04:34:15.687Z,33.55
2023-01-20T04:36:43.167Z,38.55
2023-01-20T04:39:10.353Z,35.90
2023-01-20T04:41:37.347Z,34.33
2023-01-20T04:44:04.274Z,39.90
2023-01-20T04:46:31.179Z,32.50
2023-01-20T04:48:58.211Z,35.63
2023-01-20T04:51:25.279Z,35.70
2023-01-20T04:53:57.097Z,31.40
2023-01-20T04:56:24.330Z,33.50
2023-01-20T04:58:51.246Z,41.00
2023-01-20T05:01:18.503Z,46.08
2023-01-20T05:03:45.473Z,34.42
2023-01-20T05:06:12.641Z,37.17
2023-01-20T05:08:40.007Z,35.08
2023-01-20T05:11:07.264Z,35.47
2023-01-20T05:13:38.635Z,40.50
2023-01-20T05:16:09.872Z,39.75
2023-01-20T05:18:37.114Z,38.33
2023-01-20T05:21:06.248Z,41.30
2023-01-20T05:23:33.118Z,45.05
2023-01-20T05:26:00.103Z,41.72
2023-01-20T05:28:27.020Z,45.03
2023-01-20T05:30:54.031Z,45.58
2023-01-20T05:33:21.076Z,42.17
2023-01-20T05:35:47.954Z,40.13
2023-01-20T05:38:14.909Z,42.15
2023-01-20T05:40:41.811Z,38.63
2023-01-20T05:43:08.707Z,38.25
2023-01-20T05:45:35.594Z,41.95
2023-01-20T05:48:03.318Z,38.58
2023-01-20T05:50:30.520Z,39.92
2023-01-20T05:52:57.418Z,39.97
2023-01-20T05:55:24.424Z,40.63
2023-01-20T05:57:51.444Z,42.30
2023-01-20T06:00:19.037Z,34.58
2023-01-20T06:02:46.271Z,38.92
2023-01-20T06:05:13.652Z,36.70
2023-01-20T06:07:40.793Z,37.30
2023-01-20T06:10:08.899Z,38.90
2023-01-20T06:12:35.925Z,36.22
2023-01-20T06:15:03.729Z,37.70
2023-01-20T06:17:30.781Z,35.05
2023-01-20T06:19:57.996Z,38.97
2023-01-20T06:22:26.214Z,36.42
2023-01-20T06:24:53.692Z,32.60
2023-01-20T06:27:20.663Z,31.42
2023-01-20T06:29:47.933Z,33.70
2023-01-20T06:32:14.879Z,30.80
2023-01-20T06:34:41.803Z,35.97
2023-01-20T06:37:08.889Z,35.92
2023-01-20T06:39:35.848Z,34.83
2023-01-20T06:42:02.797Z,33.08
2023-01-20T06:44:29.743Z,33.70
2023-01-20T06:46:58.096Z,33.70
2023-01-20T06:49:25.019Z,34.65
2023-01-20T06:51:52.224Z,33.45
2023-01-20T06:54:19.174Z,31.73
2023-01-20T06:56:46.419Z,31.75
2023-01-20T06:59:13.727Z,34.60
2023-01-20T07:01:41.029Z,32.85
2023-01-20T07:04:08.493Z,33.80
2023-01-20T07:06:40.760Z,33.80
2023-01-20T07:09:10.986Z,31.42
2023-01-20T07:11:38.189Z,33.78
2023-01-20T07:14:06.623Z,33.53
2023-01-20T07:16:33.971Z,33.17
2023-01-20T07:19:00.974Z,36.63
2023-01-20T07:21:28.338Z,35.75
2023-01-20T07:23:55.375Z,34.90
2023-01-20T07:26:26.535Z,30.75
2023-01-20T07:28:53.677Z,33.90
2023-01-20T07:31:23.008Z,37.45
2023-01-20T07:49:12.318Z,35.50
2023-01-20T07:51:40.134Z,37.17
2023-01-20T07:54:07.186Z,32.05
2023-01-20T07:56:34.441Z,35.85
2023-01-20T07:59:01.720Z,39.67
2023-01-20T08:01:31.045Z,40.50
2023-01-20T08:04:00.809Z,40.55
2023-01-20T08:06:29.423Z,38.35
2023-01-20T08:08:59.373Z,36.17
2023-01-20T08:11:26.324Z,37.70
2023-01-20T08:13:53.269Z,43.78
2023-01-20T08:16:20.444Z,41.78
2023-01-20T08:18:48.030Z,36.97
2023-01-20T08:21:32.107Z,36.45
2023-01-20T08:24:00.794Z,37.95
2023-01-20T08:26:29.886Z,38.47
2023-01-20T08:29:02.226Z,47.88
2023-01-20T08:31:29.280Z,39.85
2023-01-20T08:33:57.749Z,48.78
2023-01-20T08:36:31.176Z,38.60
2023-01-20T08:39:00.452Z,36.42
2023-01-20T08:41:31.937Z,41.22
2023-01-20T08:44:00.674Z,36.05
2023-01-20T08:46:27.775Z,31.38
2023-01-20T08:48:56.219Z,33.35
2023-01-20T08:51:29.331Z,36.10
2023-01-20T08:53:56.497Z,33.83
2023-01-20T08:56:23.658Z,31.00
2023-01-20T08:58:51.165Z,37.17
2023-01-20T09:01:22.132Z,29.95
2023-01-20T09:04:04.434Z,34.10
2023-01-20T09:06:47.236Z,32.63
2023-01-20T09:09:15.968Z,31.58
2023-01-20T09:11:50.705Z,31.90
2023-01-20T09:14:22.917Z,35.92
2023-01-20T09:16:49.981Z,33.58
2023-01-20T09:19:17.716Z,33.85
2023-01-20T09:21:44.829Z,33.85
2023-01-20T09:24:11.861Z,43.20
2023-01-20T09:26:41.759Z,35.83
2023-01-20T09:29:12.553Z,35.13
2023-01-20T09:31:44.998Z,35.83
2023-01-20T09:34:19.670Z,35.78
2023-01-20T09:36:54.031Z,40.70
2023-01-20T09:39:39.519Z,37.17
2023-01-20T09:42:37.459Z,42.90
2023-01-20T09:45:26.728Z,50.70
2023-01-20T09:48:41.650Z,43.97
2023-01-20T09:51:34.902Z,38.42
2023-01-20T09:54:09.889Z,34.85
2023-01-20T09:56:43.809Z,37.08
2023-01-20T09:59:16.442Z,37.67
2023-01-20T10:01:50.134Z,32.20
2023-01-20T10:04:31.108Z,31.48
2023-01-20T10:07:03.067Z,36.03
2023-01-20T10:09:35.737Z,34.17
2023-01-20T10:12:29.130Z,37.25
2023-01-20T10:15:00.979Z,42.35
2023-01-20T10:17:49.380Z,38.97
2023-01-20T10:20:31.586Z,37.40
2023-01-20T10:23:13.889Z,40.13
2023-01-20T10:25:59.681Z,39.47
2023-01-20T10:28:35.105Z,37.42
2023-01-20T10:31:04.500Z,35.25
2023-01-20T10:33:45.431Z,38.60
2023-01-20T10:36:21.692Z,37.00
2023-01-20T10:39:05.635Z,40.13
2023-01-20T10:41:41.584Z,34.93
2023-01-20T10:44:16.173Z,37.25
2023-01-20T10:46:43.133Z,36.92
2023-01-20T10:49:28.526Z,40.65
2023-01-20T10:52:01.755Z,38.90
2023-01-20T10:54:59.624Z,39.22
2023-01-20T10:57:26.950Z,45.28
2023-01-20T11:00:01.990Z,39.60
2023-01-20T11:02:34.944Z,44.40
2023-01-20T11:05:15.635Z,43.72
2023-01-20T11:07:44.591Z,40.17
2023-01-20T11:10:20.229Z,42.08
2023-01-20T11:12:51.593Z,41.50
2023-01-20T11:15:24.062Z,41.85
2023-01-20T11:18:15.916Z,35.08
2023-01-20T11:20:49.319Z,39.72
2023-01-20T11:23:27.285Z,38.75
2023-01-20T11:26:03.130Z,38.72
2023-01-20T11:28:37.776Z,40.28
2023-01-20T11:31:05.448Z,33.72
2023-01-20T11:33:32.517Z,36.60
2023-01-20T11:36:05.578Z,42.50
2023-01-20T11:38:42.952Z,32.38
2023-01-20T11:41:28.097Z,37.35
2023-01-20T11:43:57.274Z,37.08
2023-01-20T11:46:33.306Z,42.08
2023-01-20T11:49:22.438Z,42.70
2023-01-20T11:51:52.416Z,39.83
2023-01-20T11:54:27.995Z,42.00
2023-01-20T11:57:00.589Z,40.72
2023-01-20T11:59:30.056Z,33.83
2023-01-20T12:02:00.413Z,39.45
2023-01-20T12:04:36.515Z,47.38
2023-01-20T12:07:24.327Z,40.63
2023-01-20T12:09:55.873Z,50.97
2023-01-20T12:12:33.907Z,44.25
2023-01-20T12:15:23.640Z,42.45
2023-01-20T12:17:54.123Z,41.50
2023-01-20T12:20:45.695Z,39.78
2023-01-20T12:23:23.409Z,40.15
2023-01-20T12:26:03.677Z,42.88
2023-01-20T12:28:52.535Z,43.60
2023-01-20T12:31:24.120Z,41.17
2023-01-20T12:33:56.165Z,41.50
2023-01-20T12:37:12.770Z,43.97
2023-01-20T12:40:08.793Z,38.67
2023-01-20T12:43:09.199Z,39.13
2023-01-20T12:46:13.063Z,39.70
2023-01-20T12:49:10.966Z,38.63
2023-01-20T12:51:49.942Z,41.63
2023-01-20T12:54:47.862Z,43.15
2023-01-20T12:57:24.865Z,43.38
2023-01-20T13:00:19.594Z,44.65
2023-01-20T13:03:33.698Z,44.70
2023-01-20T13:06:21.781Z,41.10
2023-01-20T13:09:13.004Z,47.00
2023-01-20T13:12:29.167Z,41.15
2023-01-20T13:15:30.332Z,43.67
2023-01-20T13:18:06.383Z,41.83
2023-01-20T13:20:35.205Z,46.42
2023-01-20T13:23:05.494Z,47.50
2023-01-20T13:25:34.687Z,42.80
2023-01-20T13:28:03.759Z,43.63
2023-01-20T13:30:54.162Z,43.75
2023-01-20T13:33:40.736Z,43.83
2023-01-20T13:36:18.527Z,48.50
2023-01-20T13:38:47.327Z,45.17
2023-01-20T13:41:47.751Z,37.15
2023-01-20T13:44:35.432Z,40.47
2023-01-20T13:47:04.197Z,42.25
2023-01-20T13:49:52.384Z,43.22
2023-01-20T13:52:50.635Z,39.83
2023-01-20T13:55:47.171Z,42.83
2023-01-20T13:58:31.782Z,40.30
2023-01-20T14:01:07.945Z,45.40
2023-01-20T14:03:37.727Z,42.60
2023-01-20T14:06:19.857Z,44.67
2023-01-20T14:08:49.180Z,45.65
2023-01-20T14:11:18.790Z,41.08
2023-01-20T14:14:18.120Z,46.15
2023-01-20T14:16:45.139Z,42.13
2023-01-20T14:19:32.970Z,48.38
2023-01-20T14:22:16.913Z,45.70
2023-01-20T14:24:46.548Z,45.40
2023-01-20T14:27:19.701Z,48.72
2023-01-20T14:29:48.892Z,51.80
2023-01-20T14:32:22.605Z,49.72
2023-01-20T14:34:50.242Z,44.60
2023-01-20T14:37:27.971Z,46.17
2023-01-20T14:39:58.654Z,45.03
2023-01-20T14:42:27.439Z,41.00
2023-01-20T14:44:56.582Z,51.20
2023-01-20T14:47:26.064Z,53.30
2023-01-20T14:49:54.397Z,54.30
2023-01-20T14:52:30.377Z,52.03
2023-01-20T14:54:57.631Z,55.92
2023-01-20T14:57:40.459Z,52.65
2023-01-20T15:00:22.389Z,50.00
2023-01-20T15:03:09.166Z,54.75
2023-01-20T15:05:39.438Z,50.55
2023-01-20T15:08:26.409Z,41.33
2023-01-20T15:11:12.855Z,45.22
2023-01-20T15:14:01.010Z,56.88
2023-01-20T15:16:29.170Z,53.00
2023-01-20T15:19:17.045Z,42.92
2023-01-20T15:21:46.185Z,47.60
2023-01-20T15:24:34.652Z,54.42
2023-01-20T15:27:02.730Z,44.00
2023-01-20T15:29:35.332Z,43.92
2023-01-20T15:32:10.682Z,49.00
2023-01-20T15:34:37.593Z,47.75
2023-01-20T15:37:14.434Z,43.97
2023-01-20T15:39:41.376Z,42.20
2023-01-20T15:42:11.671Z,38.63
2023-01-20T15:44:38.658Z,41.75
2023-01-20T15:47:22.130Z,53.72
2023-01-20T15:49:49.091Z,49.92
2023-01-20T15:52:16.102Z,37.30
2023-01-20T15:54:43.130Z,48.10
2023-01-20T15:57:19.181Z,54.38
2023-01-20T15:59:46.231Z,48.55
2023-01-20T16:02:19.587Z,51.75
2023-01-20T16:04:46.729Z,46.90
2023-01-20T16:07:17.172Z,44.10
2023-01-20T16:09:44.800Z,40.10
2023-01-20T16:12:13.691Z,55.00
2023-01-20T16:14:41.225Z,45.05
2023-01-20T16:17:23.233Z,95.32
2023-01-20T16:19:50.424Z,123.82
2023-01-20T16:22:17.452Z,69.32
2023-01-20T16:24:44.484Z,68.10
2023-01-20T16:27:20.822Z,54.75
2023-01-20T16:29:47.979Z,57.13
2023-01-20T16:32:17.696Z,85.65
2023-01-20T16:34:46.425Z,46.92
2023-01-20T16:37:14.492Z,48.75
2023-01-20T16:39:41.536Z,44.42
2023-01-20T16:42:12.525Z,43.17
2023-01-20T16:44:39.530Z,45.08
2023-01-20T16:47:08.383Z,41.20
2023-01-20T16:49:35.578Z,43.65
2023-01-20T16:52:02.566Z,43.60
2023-01-20T16:54:29.649Z,47.65
2023-01-20T16:56:56.636Z,43.83
2023-01-20T16:59:23.583Z,42.90
2023-01-20T17:01:50.543Z,43.67
2023-01-20T17:04:17.519Z,48.13
2023-01-20T17:06:44.586Z,45.20
2023-01-20T17:09:12.002Z,41.00
2023-01-20T17:11:40.512Z,44.92
2023-01-20T17:14:10.233Z,42.95
2023-01-20T17:16:38.371Z,44.28
2023-01-20T17:19:06.525Z,47.10
2023-01-20T17:21:37.187Z,36.80
2023-01-20T17:24:05.367Z,43.00
2023-01-20T17:26:32.478Z,39.40
2023-01-20T17:29:04.863Z,47.35
2023-01-20T17:31:35.558Z,43.20
2023-01-20T17:34:04.752Z,42.42
2023-01-20T17:36:34.808Z,47.60
2023-01-20T17:39:03.396Z,39.90
2023-01-20T17:41:30.320Z,40.42
2023-01-20T17:43:57.426Z,37.45
2023-01-20T17:46:30.332Z,43.40
2023-01-20T17:49:08.172Z,48.30
2023-01-20T17:51:35.301Z,47.53
2023-01-20T17:54:03.935Z,52.70
2023-01-20T17:56:31.226Z,48.63
2023-01-20T17:58:58.190Z,43.85
2023-01-20T18:01:27.894Z,49.85
2023-01-20T18:03:56.757Z,52.10
2023-01-20T18:06:25.416Z,47.13
2023-01-20T18:09:00.805Z,48.17
2023-01-20T18:11:31.178Z,44.55
2023-01-20T18:13:59.158Z,50.20
2023-01-20T18:16:32.586Z,43.88
2023-01-20T18:18:59.835Z,41.97
2023-01-20T18:21:33.243Z,44.55
2023-01-20T18:24:01.213Z,42.33
2023-01-20T18:26:31.529Z,40.38
2023-01-20T18:29:01.074Z,51.17
2023-01-20T18:31:30.094Z,48.88
2023-01-20T18:33:59.630Z,53.90
2023-01-20T18:36:37.884Z,54.63
2023-01-20T18:39:07.822Z,49.65
2023-01-20T18:41:37.624Z,52.20
2023-01-20T18:44:05.351Z,48.72
2023-01-20T18:46:32.867Z,47.60
2023-01-20T18:49:00.449Z,51.10
2023-01-20T18:51:29.099Z,48.90
2023-01-20T18:54:01.718Z,46.30
2023-01-20T18:56:29.954Z,47.97
2023-01-20T18:58:57.289Z,45.88
2023-01-20T19:01:27.897Z,41.95
2023-01-20T19:03:55.465Z,43.22
2023-01-20T19:06:34.922Z,43.10
2023-01-20T19:09:02.075Z,38.70
2023-01-20T19:11:31.951Z,42.33
2023-01-20T19:13:59.490Z,42.90
2023-01-20T19:16:32.571Z,36.97
2023-01-20T19:19:04.399Z,42.47
2023-01-20T19:21:33.291Z,39.00
2023-01-20T19:24:06.046Z,41.92
2023-01-20T19:26:35.889Z,39.05
2023-01-20T19:29:10.251Z,49.65
2023-01-20T19:31:39.540Z,45.78
2023-01-20T19:34:08.862Z,47.70
2023-01-20T19:36:36.366Z,54.97
2023-01-20T19:39:03.494Z,43.63
2023-01-20T19:41:36.122Z,45.60
2023-01-20T19:44:05.267Z,45.22
2023-01-20T19:46:34.347Z,43.45
2023-01-20T19:49:02.623Z,39.65
2023-01-20T19:51:32.201Z,45.17
2023-01-20T19:54:01.415Z,44.80
2023-01-20T19:56:31.771Z,46.15
2023-01-20T19:59:00.831Z,41.58
2023-01-20T20:01:32.774Z,40.40
2023-01-20T20:04:04.455Z,40.35
2023-01-20T20:06:33.745Z,42.78
2023-01-20T20:09:01.846Z,45.53
2023-01-20T20:11:29.838Z,41.15
2023-01-20T20:13:58.458Z,38.30
2023-01-20T20:16:27.752Z,45.70
2023-01-20T20:18:56.008Z,41.72
2023-01-20T20:21:24.049Z,33.85
2023-01-20T20:23:56.698Z,41.67
2023-01-20T20:26:26.893Z,36.85
2023-01-20T20:28:55.308Z,41.97
2023-01-20T20:31:29.112Z,37.80
2023-01-20T20:33:57.888Z,34.28
2023-01-20T20:36:28.484Z,34.67
2023-01-20T20:38:56.057Z,35.00
2023-01-20T20:41:25.865Z,36.30
2023-01-20T20:43:53.831Z,36.55
2023-01-20T20:46:21.328Z,37.95
2023-01-20T20:48:48.304Z,31.08
2023-01-20T20:51:17.258Z,35.65
2023-01-20T20:53:44.884Z,34.95
2023-01-20T20:56:14.589Z,32.60
2023-01-20T20:58:59.570Z,40.47
2023-01-20T21:01:29.905Z,33.72
2023-01-20T21:07:44.470Z,36.28
2023-01-20T21:10:14.049Z,37.35
2023-01-20T21:12:41.633Z,33.70
2023-01-20T21:15:11.344Z,33.25
2023-01-20T21:17:39.242Z,39.95
2023-01-20T21:20:07.642Z,40.45
2023-01-20T21:22:34.920Z,40.28
2023-01-20T21:25:01.877Z,41.88
2023-01-20T21:27:30.542Z,38.47
2023-01-20T21:29:57.481Z,45.42
2023-01-20T21:32:24.609Z,43.55
2023-01-20T21:34:51.529Z,44.05
2023-01-20T21:37:19.737Z,45.72
2023-01-20T21:39:46.680Z,41.95
2023-01-20T21:42:13.551Z,42.47
2023-01-20T21:44:43.262Z,44.75
2023-01-20T21:47:10.844Z,45.53
2023-01-20T21:49:56.449Z,39.22
2023-01-20T21:52:42.486Z,42.95
2023-01-20T21:55:16.155Z,41.30
2023-01-20T21:57:43.350Z,44.20
2023-01-20T22:00:10.990Z,44.83
2023-01-20T22:02:37.934Z,48.03
2023-01-20T22:05:05.227Z,47.75
2023-01-20T22:07:32.230Z,39.42
2023-01-20T22:09:59.200Z,44.22
2023-01-20T22:12:26.265Z,45.92
2023-01-20T22:14:53.231Z,41.92
2023-01-20T22:17:20.466Z,44.00
2023-01-20T22:19:47.435Z,43.65
2023-01-20T22:22:15.370Z,40.35
2023-01-20T22:24:42.716Z,50.92
2023-01-20T22:27:09.710Z,43.13
2023-01-20T22:29:36.681Z,42.40
2023-01-20T22:32:05.211Z,44.45
2023-01-20T22:34:32.151Z,39.58
2023-01-20T22:37:00.597Z,39.78
2023-01-20T22:39:28.240Z,41.90
2023-01-20T22:41:55.496Z,42.90
2023-01-20T22:44:22.576Z,38.60
2023-01-20T22:46:49.546Z,38.42
2023-01-20T22:49:16.497Z,33.83
2023-01-20T22:51:43.525Z,46.78
2023-01-20T22:54:10.976Z,40.35
2023-01-20T22:56:39.183Z,39.17
2023-01-20T22:59:06.462Z,36.70
2023-01-20T23:01:35.807Z,34.88
2023-01-20T23:04:04.879Z,29.35
2023-01-20T23:06:34.576Z,36.65
2023-01-20T23:09:04.588Z,28.45
2023-01-20T23:11:31.811Z,30.20
2023-01-20T23:14:00.319Z,29.88
2023-01-20T23:16:27.390Z,39.40
2023-01-20T23:18:54.501Z,37.65
2023-01-20T23:21:21.965Z,33.25
2023-01-20T23:23:54.472Z,37.63
2023-01-20T23:26:24.226Z,34.50
2023-01-20T23:28:52.860Z,33.58
2023-01-20T23:31:23.054Z,35.28
2023-01-20T23:33:50.651Z,31.27
2023-01-20T23:36:21.285Z,33.63
2023-01-20T23:38:48.283Z,34.22
2023-01-20T23:41:15.953Z,36.60
2023-01-20T23:43:43.371Z,37.05
2023-01-20T23:46:10.988Z,36.42
2023-01-20T23:48:38.850Z,39.53
2023-01-20T23:51:06.753Z,42.13
2023-01-20T23:53:39.050Z,31.05
2023-01-20T23:56:15.090Z,33.47
2023-01-20T23:58:42.439Z,37.75
